Time;durP1;ratioP1;P1;durP2;ratioP2;P2;SDS_P1;SDS_P2;PMS_P1;PMS_P2;Temp;Humidity;BMP_temperature;BMP_pressure;BME280_temperature;BME280_humidity;BME280_pressure;Samples;Min_cycle;Max_cycle;Signal;HPM_P1;HPM_P2
2022/03/12 00:00:51;;;;;;;8.82;6.32;;;7.20;46.60;;;;;;5042391;28;20834;-55
2022/03/12 00:03:17;;;;;;;10.48;7.18;;;7.20;46.30;;;;;;5042936;28;20575;-59
2022/03/12 00:05:54;;;;;;;9.85;7.00;;;7.20;46.40;;;;;;5040854;28;20084;-53
2022/03/12 00:08:46;;;;;;;10.25;6.63;;;7.20;46.50;;;;;;5025036;28;20492;-55
2022/03/12 00:11:19;;;;;;;14.68;7.57;;;7.20;46.50;;;;;;5041681;28;20057;-55
2022/03/12 00:13:46;;;;;;;13.68;7.80;;;7.20;46.60;;;;;;5041335;28;20084;-55
2022/03/12 00:16:14;;;;;;;8.98;6.72;;;7.20;46.30;;;;;;5024509;28;20045;-54
2022/03/12 00:18:42;;;;;;;8.48;7.03;;;7.30;46.00;;;;;;5041395;28;20048;-55
2022/03/12 00:21:13;;;;;;;11.07;7.38;;;7.30;46.00;;;;;;5043063;28;20060;-54
2022/03/12 00:23:46;;;;;;;9.07;7.15;;;7.30;46.00;;;;;;5041259;28;20194;-54
2022/03/12 00:26:14;;;;;;;10.30;7.40;;;7.30;46.00;;;;;;5042607;28;20044;-53
2022/03/12 00:28:42;;;;;;;7.93;6.38;;;7.30;46.20;;;;;;5042409;28;20156;-54
2022/03/12 00:31:11;;;;;;;7.63;6.18;;;7.20;46.50;;;;;;5025085;28;20550;-54
2022/03/12 00:33:38;;;;;;;10.70;7.38;;;7.20;46.10;;;;;;5024876;28;20056;-56
2022/03/12 00:36:05;;;;;;;10.40;7.15;;;7.20;46.50;;;;;;5043009;28;20118;-56
2022/03/12 00:38:32;;;;;;;11.15;7.30;;;7.20;47.20;;;;;;5041449;28;20045;-53
2022/03/12 00:41:03;;;;;;;9.63;6.50;;;7.20;47.00;;;;;;5042688;28;20060;-55
2022/03/12 00:43:30;;;;;;;13.52;7.22;;;7.10;47.10;;;;;;5041760;28;20048;-55
2022/03/12 00:45:56;;;;;;;9.55;6.93;;;7.10;47.10;;;;;;5040945;28;20501;-55
2022/03/12 00:48:22;;;;;;;8.85;6.95;;;7.10;47.00;;;;;;5041589;28;20435;-56
2022/03/12 00:50:50;;;;;;;11.13;7.05;;;7.10;47.10;;;;;;5043184;28;20063;-54
2022/03/12 00:53:16;;;;;;;10.13;6.32;;;7.10;47.70;;;;;;5044043;28;20057;-54
2022/03/12 00:55:42;;;;;;;10.70;7.90;;;7.10;47.20;;;;;;5057481;28;20539;-56
2022/03/12 00:58:09;;;;;;;9.77;7.25;;;7.10;47.30;;;;;;5042325;28;20044;-56
2022/03/12 01:00:35;;;;;;;13.60;6.35;;;7.10;47.10;;;;;;5042527;28;20053;-55
2022/03/12 01:03:01;;;;;;;10.77;7.13;;;7.10;47.30;;;;;;5042482;28;20115;-53
2022/03/12 01:06:01;;;;;;;11.75;6.82;;;7.20;47.00;;;;;;5042406;28;20492;-53
2022/03/12 01:08:28;;;;;;;11.88;7.38;;;7.20;46.40;;;;;;5034052;28;20574;-54
2022/03/12 01:10:58;;;;;;;10.02;7.15;;;7.20;47.00;;;;;;5042131;28;20041;-54
2022/03/12 01:13:25;;;;;;;10.32;7.50;;;7.20;47.00;;;;;;5044174;28;20049;-51
2022/03/12 01:15:51;;;;;;;10.27;7.00;;;7.20;47.00;;;;;;5027692;28;20040;-57
2022/03/12 01:18:20;;;;;;;13.93;7.00;;;7.20;47.00;;;;;;5046060;28;20128;-57
2022/03/12 01:20:46;;;;;;;9.00;6.88;;;7.20;47.00;;;;;;5028610;28;20049;-57
2022/03/12 01:23:15;;;;;;;9.07;6.93;;;7.20;46.90;;;;;;5046326;28;20041;-54
2022/03/12 01:25:42;;;;;;;9.70;7.28;;;7.20;46.80;;;;;;5045836;28;20045;-52
2022/03/12 01:28:09;;;;;;;9.57;6.90;;;7.20;47.00;;;;;;5044700;28;20118;-52
2022/03/12 01:30:36;;;;;;;10.82;6.68;;;7.10;47.00;;;;;;5046237;28;20501;-53
2022/03/12 01:33:02;;;;;;;10.18;6.57;;;7.10;46.70;;;;;;5043921;28;20047;-52
2022/03/12 01:35:28;;;;;;;13.02;7.10;;;7.20;46.80;;;;;;5027828;28;20315;-52
2022/03/12 01:37:54;;;;;;;9.80;6.60;;;7.20;46.70;;;;;;5027167;28;20132;-53
2022/03/12 01:40:21;;;;;;;10.30;7.55;;;7.20;47.10;;;;;;5046466;28;20052;-51
2022/03/12 01:42:47;;;;;;;13.23;7.53;;;7.20;46.80;;;;;;5028421;28;20122;-53
2022/03/12 01:45:22;;;;;;;10.77;7.15;;;7.10;47.30;;;;;;5046014;28;20059;-54
2022/03/12 01:47:48;;;;;;;8.75;7.30;;;7.20;47.10;;;;;;5027568;28;20044;-54
2022/03/12 01:50:19;;;;;;;8.77;6.97;;;7.20;47.10;;;;;;5045842;28;20045;-54
2022/03/12 01:52:45;;;;;;;10.35;7.05;;;7.20;46.80;;;;;;5044582;28;20385;-53
2022/03/12 01:55:12;;;;;;;9.25;6.63;;;7.20;46.50;;;;;;5027440;28;20419;-54
2022/03/12 01:57:39;;;;;;;11.40;6.82;;;7.20;47.00;;;;;;5045325;28;20067;-53
2022/03/12 02:00:05;;;;;;;11.55;7.40;;;7.20;46.70;;;;;;5060225;28;20451;-52
2022/03/12 02:02:41;;;;;;;10.15;6.70;;;7.20;46.50;;;;;;5059152;28;20052;-53
2022/03/12 02:05:08;;;;;;;13.73;7.15;;;7.30;46.50;;;;;;5043933;28;20113;-53
2022/03/12 02:07:34;;;;;;;9.35;7.35;;;7.20;47.00;;;;;;5011209;28;20049;-53
2022/03/12 02:10:01;;;;;;;10.15;6.85;;;7.20;47.10;;;;;;5044980;28;20416;-51
2022/03/12 02:12:27;;;;;;;9.68;6.88;;;7.10;47.30;;;;;;5027376;28;20091;-53
2022/03/12 02:14:53;;;;;;;9.38;6.80;;;7.10;47.60;;;;;;5043329;28;20052;-53
2022/03/12 02:17:19;;;;;;;11.68;6.90;;;7.20;47.20;;;;;;5043272;28;20044;-52
2022/03/12 02:19:45;;;;;;;10.57;7.75;;;7.10;47.20;;;;;;5027073;28;20128;-54
2022/03/12 02:22:15;;;;;;;8.70;6.28;;;7.10;47.30;;;;;;5027325;28;20067;-54
2022/03/12 02:24:42;;;;;;;9.15;7.13;;;7.10;47.40;;;;;;5044615;28;20071;-58
2022/03/12 02:27:12;;;;;;;9.93;7.07;;;7.10;47.30;;;;;;5043733;28;20076;-51
2022/03/12 02:29:40;;;;;;;12.32;7.55;;;7.10;47.30;;;;;;5045137;28;20053;-53
2022/03/12 02:32:09;;;;;;;10.45;7.97;;;7.10;47.10;;;;;;5045534;28;20438;-54
2022/03/12 02:34:39;;;;;;;12.75;7.25;;;7.10;47.70;;;;;;5044358;28;20508;-52
2022/03/12 02:37:06;;;;;;;10.13;7.00;;;7.10;47.70;;;;;;5045947;28;20045;-57
2022/03/12 02:39:34;;;;;;;8.85;6.88;;;7.00;47.50;;;;;;5027353;28;20400;-57
2022/03/12 02:42:01;;;;;;;8.98;6.85;;;7.00;47.70;;;;;;5043518;28;20049;-57
2022/03/12 02:44:28;;;;;;;9.75;7.93;;;7.00;47.80;;;;;;5028038;28;20132;-57
2022/03/12 02:47:14;;;;;;;10.00;7.15;;;7.00;47.60;;;;;;5043205;28;20099;-58
2022/03/12 02:49:45;;;;;;;11.00;7.20;;;7.00;47.70;;;;;;5043995;28;20088;-57
2022/03/12 02:52:13;;;;;;;11.65;7.13;;;7.00;48.70;;;;;;5059795;28;20451;-57
2022/03/12 02:54:42;;;;;;;9.38;7.20;;;7.00;47.80;;;;;;5042907;28;20053;-57
2022/03/12 02:57:09;;;;;;;11.73;7.13;;;7.00;47.80;;;;;;5044453;28;20474;-57
2022/03/12 02:59:37;;;;;;;11.15;6.45;;;7.00;47.60;;;;;;5044722;28;20407;-57
2022/03/12 03:02:07;;;;;;;9.43;6.65;;;7.00;47.30;;;;;;5043884;28;20504;-59
2022/03/12 03:04:34;;;;;;;11.00;7.90;;;7.00;47.70;;;;;;5009848;28;20127;-58
2022/03/12 03:07:03;;;;;;;10.18;6.93;;;7.00;48.20;;;;;;5043755;28;20546;-58
2022/03/12 03:09:29;;;;;;;10.38;7.70;;;6.90;47.90;;;;;;5044134;28;20057;-58
2022/03/12 03:11:57;;;;;;;9.93;6.68;;;6.90;48.10;;;;;;5042345;28;20057;-58
2022/03/12 03:14:27;;;;;;;9.90;6.95;;;6.80;48.10;;;;;;5044155;28;20459;-58
2022/03/12 03:16:58;;;;;;;9.88;7.25;;;6.90;47.80;;;;;;5042116;28;20053;-58
2022/03/12 03:19:26;;;;;;;10.32;7.57;;;6.80;48.20;;;;;;5043226;28;20045;-58
2022/03/12 03:21:53;;;;;;;11.88;7.53;;;6.90;48.20;;;;;;5042503;28;20086;-58
2022/03/12 03:24:21;;;;;;;10.43;7.85;;;6.90;48.00;;;;;;5042507;28;20573;-58
2022/03/12 03:26:47;;;;;;;11.27;7.80;;;6.80;48.30;;;;;;5044003;28;20065;-58
2022/03/12 03:29:15;;;;;;;8.93;7.30;;;6.90;48.30;;;;;;5044159;28;20585;-58
2022/03/12 03:31:41;;;;;;;11.00;7.32;;;6.80;48.30;;;;;;5042163;28;20048;-58
2022/03/12 03:34:08;;;;;;;10.27;7.70;;;6.80;48.60;;;;;;5042629;28;20056;-58
2022/03/12 03:36:34;;;;;;;10.02;8.43;;;6.80;48.20;;;;;;5042039;28;20116;-58
2022/03/12 03:39:00;;;;;;;9.05;7.30;;;6.70;48.90;;;;;;5041606;28;20458;-58
2022/03/12 03:41:27;;;;;;;10.10;7.10;;;6.70;49.10;;;;;;5043651;28;20053;-58
2022/03/12 03:43:53;;;;;;;11.38;7.28;;;6.70;48.50;;;;;;5043640;28;20120;-58
2022/03/12 03:46:21;;;;;;;10.48;7.85;;;6.60;49.30;;;;;;5043519;28;20488;-58
2022/03/12 03:48:50;;;;;;;13.35;7.53;;;6.60;49.40;;;;;;5025149;28;20056;-58
2022/03/12 03:51:18;;;;;;;10.13;7.72;;;6.50;49.70;;;;;;5043738;28;20569;-58
2022/03/12 03:53:44;;;;;;;9.55;7.60;;;6.50;49.60;;;;;;5043588;28;20056;-58
2022/03/12 03:56:10;;;;;;;9.73;7.10;;;6.40;50.20;;;;;;5043614;28;20052;-58
2022/03/12 03:58:37;;;;;;;11.00;7.85;;;6.40;50.10;;;;;;5043175;28;20528;-58
2022/03/12 04:01:12;;;;;;;9.45;7.15;;;6.30;50.70;;;;;;5042894;28;20104;-59
2022/03/12 04:03:47;;;;;;;8.63;7.47;;;6.30;50.30;;;;;;5043661;28;20041;-58
2022/03/12 04:06:16;;;;;;;11.05;7.38;;;6.20;50.70;;;;;;5043449;28;20052;-58
2022/03/12 04:08:43;;;;;;;11.57;7.93;;;6.20;50.50;;;;;;5024446;28;20057;-58
2022/03/12 04:11:15;;;;;;;10.05;7.65;;;6.20;50.70;;;;;;5042955;28;20110;-58
2022/03/12 04:13:42;;;;;;;14.70;8.50;;;6.20;51.20;;;;;;5042668;28;20055;-58
2022/03/12 04:16:09;;;;;;;11.35;7.80;;;6.20;51.00;;;;;;5041466;28;20044;-58
2022/03/12 04:18:37;;;;;;;12.18;7.88;;;6.10;51.20;;;;;;5041790;28;20215;-58
2022/03/12 04:21:05;;;;;;;11.65;7.55;;;6.20;50.90;;;;;;5021958;28;20049;-58
2022/03/12 04:23:32;;;;;;;10.68;7.18;;;6.20;51.20;;;;;;5023343;28;20045;-58
2022/03/12 04:25:59;;;;;;;8.98;7.55;;;6.20;50.90;;;;;;5023110;28;20049;-58
2022/03/12 04:28:32;;;;;;;13.48;8.85;;;6.20;51.00;;;;;;5023555;28;20049;-58
2022/03/12 04:31:01;;;;;;;12.23;7.90;;;6.20;51.90;;;;;;5039623;28;20048;-58
2022/03/12 04:33:28;;;;;;;11.60;8.00;;;6.20;51.60;;;;;;5043222;28;20102;-58
2022/03/12 04:35:56;;;;;;;11.43;8.07;;;6.20;51.70;;;;;;5041572;28;20511;-58
2022/03/12 04:38:23;;;;;;;11.68;8.10;;;6.20;51.90;;;;;;5025275;28;20139;-59
2022/03/12 04:40:49;;;;;;;10.25;7.88;;;6.20;51.50;;;;;;5041388;28;20059;-58
2022/03/12 04:43:21;;;;;;;;;;;6.20;51.10;;;;;;5025271;28;20041;-58
2022/03/12 04:45:49;;;;;;;10.30;8.07;;;6.10;51.80;;;;;;5041264;28;19927;-53
2022/03/12 04:48:21;;;;;;;12.55;7.68;;;6.10;51.90;;;;;;5045975;28;20056;-54
2022/03/12 04:50:48;;;;;;;;;;;6.10;52.10;;;;;;5046799;28;20080;-58
2022/03/12 04:53:15;;;;;;;10.68;8.00;;;6.00;52.90;;;;;;5045652;28;20007;-58
2022/03/12 04:55:43;;;;;;;14.15;8.18;;;6.00;52.00;;;;;;5045105;28;20114;-58
2022/03/12 04:58:10;;;;;;;10.82;6.75;;;6.00;51.90;;;;;;5028292;28;20517;-58
2022/03/12 05:00:38;;;;;;;12.02;7.43;;;6.00;51.70;;;;;;5061563;28;20084;-54
2022/03/12 05:03:08;;;;;;;9.65;7.97;;;6.00;52.20;;;;;;5027553;28;20049;-53
2022/03/12 05:05:54;;;;;;;12.05;7.10;;;6.10;51.80;;;;;;5028760;28;20048;-58
2022/03/12 05:08:21;;;;;;;10.95;7.40;;;6.10;51.50;;;;;;5045036;28;20496;-58
2022/03/12 05:10:49;;;;;;;10.70;7.72;;;6.10;51.70;;;;;;5045987;28;20056;-58
2022/03/12 05:13:22;;;;;;;11.32;7.55;;;6.10;51.90;;;;;;5044545;28;20049;-53
2022/03/12 05:15:57;;;;;;;14.43;7.88;;;6.10;52.10;;;;;;5027824;28;20049;-54
2022/03/12 05:18:26;;;;;;;11.88;7.53;;;6.00;52.30;;;;;;5045913;28;20096;-58
2022/03/12 05:20:52;;;;;;;11.32;7.63;;;6.00;52.30;;;;;;5046110;28;20049;-58
2022/03/12 05:23:19;;;;;;;11.20;7.40;;;5.90;52.90;;;;;;5046064;28;20048;-59
2022/03/12 05:25:48;;;;;;;9.40;7.70;;;5.80;53.40;;;;;;5045763;28;20049;-54
2022/03/12 05:28:17;;;;;;;10.32;7.97;;;5.80;53.10;;;;;;5046465;28;20044;-59
2022/03/12 05:30:46;;;;;;;12.25;8.30;;;5.80;53.40;;;;;;5045607;28;20053;-61
2022/03/12 05:33:14;;;;;;;11.23;8.48;;;5.70;53.50;;;;;;5045963;28;20041;-55
2022/03/12 05:35:42;;;;;;;9.50;7.75;;;5.80;53.90;;;;;;5046099;28;20570;-55
2022/03/12 05:38:13;;;;;;;11.38;7.78;;;5.70;53.80;;;;;;5028916;28;20088;-60
2022/03/12 05:40:41;;;;;;;10.35;8.23;;;5.70;53.80;;;;;;5046012;28;20048;-58
2022/03/12 05:43:12;;;;;;;10.02;7.93;;;5.70;53.50;;;;;;5044159;28;20076;-59
2022/03/12 05:45:39;;;;;;;11.05;8.05;;;5.70;53.80;;;;;;5045948;28;20049;-59
2022/03/12 05:48:08;;;;;;;11.38;7.65;;;5.70;54.00;;;;;;5044141;28;20050;-58
2022/03/12 05:50:38;;;;;;;11.05;7.93;;;5.70;54.00;;;;;;5044588;28;20500;-59
2022/03/12 05:53:08;;;;;;;13.48;8.68;;;5.70;53.80;;;;;;5027514;28;20917;-59
2022/03/12 05:55:36;;;;;;;12.93;8.20;;;5.70;53.80;;;;;;5043657;28;20057;-56
2022/03/12 05:58:02;;;;;;;10.80;7.68;;;5.70;53.40;;;;;;5045126;28;20056;-55
2022/03/12 06:00:29;;;;;;;9.95;7.35;;;5.80;53.10;;;;;;5045642;28;20049;-54
2022/03/12 06:03:04;;;;;;;12.63;7.85;;;5.80;53.50;;;;;;5044742;28;20484;-51
2022/03/12 06:05:31;;;;;;;12.60;8.35;;;5.80;53.70;;;;;;5043342;28;20045;-56
2022/03/12 06:07:59;;;;;;;8.90;6.90;;;5.80;54.20;;;;;;5044902;28;20057;-60
2022/03/12 06:10:29;;;;;;;9.73;7.60;;;5.70;54.50;;;;;;5044725;28;20045;-58
2022/03/12 06:12:58;;;;;;;11.88;8.13;;;5.70;54.90;;;;;;5044863;28;20089;-58
2022/03/12 06:15:27;;;;;;;11.50;8.50;;;5.70;54.90;;;;;;5027270;28;20045;-57
2022/03/12 06:17:54;;;;;;;10.95;7.82;;;5.70;54.70;;;;;;5044455;28;20088;-58
2022/03/12 06:20:22;;;;;;;10.70;8.07;;;5.70;54.00;;;;;;5045431;28;20956;-57
2022/03/12 06:22:50;;;;;;;9.68;7.10;;;5.70;54.50;;;;;;5045154;28;20045;-58
2022/03/12 06:25:17;;;;;;;12.07;8.35;;;5.60;54.90;;;;;;5044754;28;20392;-58
2022/03/12 06:27:54;;;;;;;10.70;7.65;;;5.70;55.30;;;;;;5042739;28;20053;-58
2022/03/12 06:30:24;;;;;;;11.60;7.72;;;5.60;56.10;;;;;;5044878;28;20818;-58
2022/03/12 06:32:51;;;;;;;11.32;7.63;;;5.60;55.60;;;;;;5025781;28;20116;-58
2022/03/12 06:35:18;;;;;;;10.80;7.85;;;5.70;55.20;;;;;;5043749;28;20307;-58
2022/03/12 06:37:45;;;;;;;10.07;7.75;;;5.70;56.10;;;;;;5044769;28;20045;-58
2022/03/12 06:40:18;;;;;;;15.43;8.23;;;5.70;56.10;;;;;;5043641;28;20057;-58
2022/03/12 06:42:46;;;;;;;13.50;8.20;;;5.70;56.70;;;;;;5027333;28;20053;-59
2022/03/12 06:45:16;;;;;;;13.30;8.00;;;5.70;56.20;;;;;;5059291;28;20049;-58
2022/03/12 06:47:46;;;;;;;12.63;8.23;;;5.70;57.00;;;;;;5043375;28;20489;-58
2022/03/12 06:50:15;;;;;;;10.60;7.65;;;5.80;57.50;;;;;;5043470;28;20413;-58
2022/03/12 06:52:43;;;;;;;10.88;7.78;;;5.80;57.70;;;;;;5026738;28;20047;-58
2022/03/12 06:55:10;;;;;;;10.82;7.88;;;5.90;56.70;;;;;;5043954;28;20493;-59
2022/03/12 06:57:38;;;;;;;14.25;8.18;;;5.90;56.30;;;;;;5044483;28;20053;-58
2022/03/12 07:00:06;;;;;;;13.70;8.10;;;6.00;56.20;;;;;;5006554;28;20572;-59
2022/03/12 07:02:32;;;;;;;12.93;7.55;;;6.00;56.90;;;;;;5039276;28;20050;-58
2022/03/12 07:04:58;;;;;;;12.85;7.70;;;6.00;55.90;;;;;;5006401;28;20190;-58
2022/03/12 07:07:24;;;;;;;12.25;7.22;;;6.00;56.00;;;;;;5022798;28;20468;-58
2022/03/12 07:09:50;;;;;;;11.50;7.65;;;5.90;56.40;;;;;;5032361;28;20523;-58
2022/03/12 07:12:17;;;;;;;14.70;8.00;;;5.90;56.10;;;;;;5041370;28;20052;-58
2022/03/12 07:14:43;;;;;;;13.05;8.15;;;5.90;56.20;;;;;;5044197;28;20049;-59
2022/03/12 07:17:10;;;;;;;12.10;8.10;;;5.90;56.70;;;;;;5042283;28;20103;-58
2022/03/12 07:19:36;;;;;;;14.15;8.18;;;5.90;56.70;;;;;;5042831;28;20489;-58
2022/03/12 07:22:03;;;;;;;11.98;8.18;;;6.00;56.90;;;;;;4976247;28;20064;-58
2022/03/12 07:24:29;;;;;;;12.95;8.20;;;6.00;57.00;;;;;;5042249;28;20498;-58
2022/03/12 07:26:55;;;;;;;10.88;7.97;;;6.00;57.20;;;;;;5043465;28;20049;-58
2022/03/12 07:29:21;;;;;;;17.92;8.98;;;6.20;58.10;;;;;;5043463;28;20049;-58
2022/03/12 07:31:56;;;;;;;13.77;8.50;;;6.40;57.70;;;;;;5080930;27;20428;-58
2022/03/12 07:34:22;;;;;;;18.20;8.35;;;6.60;57.80;;;;;;5063163;28;20460;-59
2022/03/12 07:36:48;;;;;;;13.85;8.63;;;6.90;58.00;;;;;;5081014;28;20079;-58
2022/03/12 07:39:14;;;;;;;12.32;8.90;;;7.30;56.80;;;;;;5079555;28;20395;-58
2022/03/12 07:41:41;;;;;;;13.43;8.32;;;7.60;56.00;;;;;;5056296;28;20090;-59
2022/03/12 07:44:07;;;;;;;12.38;7.95;;;7.90;55.30;;;;;;5060645;28;20054;-58
2022/03/12 07:46:34;;;;;;;10.05;8.50;;;8.20;54.50;;;;;;5060012;28;20094;-59
2022/03/12 07:49:03;;;;;;;13.55;8.98;;;8.50;53.70;;;;;;5059486;28;20399;-59
2022/03/12 07:51:32;;;;;;;11.63;9.40;;;8.80;53.00;;;;;;5059753;28;20070;-59
2022/03/12 07:54:00;;;;;;;18.33;11.23;;;8.80;51.90;;;;;;5057960;28;20059;-58
2022/03/12 07:56:27;;;;;;;16.70;12.70;;;8.80;52.30;;;;;;5059676;28;20068;-58
2022/03/12 07:58:55;;;;;;;18.77;13.13;;;9.00;52.10;;;;;;5057666;28;20101;-59
2022/03/12 08:01:22;;;;;;;19.90;13.68;;;9.50;52.10;;;;;;5059649;28;20049;-58
2022/03/12 08:03:48;;;;;;;18.63;11.95;;;9.80;51.40;;;;;;5058980;28;20123;-59
2022/03/12 08:06:15;;;;;;;21.90;14.98;;;10.00;50.90;;;;;;5059733;28;20082;-58
2022/03/12 08:08:41;;;;;;;21.20;13.43;;;10.00;50.50;;;;;;5058708;28;20575;-58
2022/03/12 08:11:28;;;;;;;21.27;15.15;;;10.00;50.60;;;;;;5075263;28;20551;-58
2022/03/12 08:14:00;;;;;;;25.45;16.60;;;9.80;51.00;;;;;;5057838;28;20147;-58
2022/03/12 08:16:28;;;;;;;27.05;17.65;;;10.00;51.30;;;;;;5059118;28;20044;-58
2022/03/12 08:18:55;;;;;;;26.42;17.73;;;10.00;51.10;;;;;;5058933;28;20048;-58
2022/03/12 08:21:21;;;;;;;24.83;17.10;;;10.20;51.20;;;;;;5057052;28;20044;-58
2022/03/12 08:23:48;;;;;;;25.20;16.50;;;10.30;51.10;;;;;;5057506;28;20052;-58
2022/03/12 08:26:15;;;;;;;21.67;15.45;;;10.30;50.80;;;;;;5059025;28;20048;-58
2022/03/12 08:28:41;;;;;;;22.52;13.82;;;10.50;50.70;;;;;;5059234;28;20080;-59
2022/03/12 08:31:07;;;;;;;15.85;12.57;;;10.80;50.50;;;;;;5057470;28;20064;-59
2022/03/12 08:33:36;;;;;;;16.00;12.48;;;11.20;50.00;;;;;;5058933;28;20057;-58
2022/03/12 08:36:04;;;;;;;17.42;11.07;;;11.50;49.60;;;;;;5057695;28;20136;-58
2022/03/12 08:38:32;;;;;;;14.00;10.40;;;11.80;49.30;;;;;;5059737;28;20496;-58
2022/03/12 08:40:58;;;;;;;13.02;10.13;;;11.80;49.10;;;;;;5057746;28;20053;-58
2022/03/12 08:43:24;;;;;;;16.30;9.70;;;11.80;49.50;;;;;;5045468;28;20044;-58
2022/03/12 08:45:50;;;;;;;14.70;9.85;;;11.80;49.00;;;;;;5043567;28;20544;-55
2022/03/12 08:48:17;;;;;;;12.40;10.52;;;11.80;49.00;;;;;;5044168;28;20063;-59
2022/03/12 08:50:44;;;;;;;11.43;9.60;;;11.80;49.00;;;;;;5046069;28;20197;-59
2022/03/12 08:53:12;;;;;;;12.80;9.82;;;12.00;49.00;;;;;;5027790;28;20599;-58
2022/03/12 08:55:38;;;;;;;13.88;10.13;;;12.00;48.40;;;;;;5045421;28;20055;-58
2022/03/12 08:58:05;;;;;;;14.98;10.45;;;12.10;48.60;;;;;;5045450;28;20545;-58
2022/03/12 09:00:32;;;;;;;15.02;9.50;;;12.20;49.20;;;;;;5043127;28;20044;-58
2022/03/12 09:02:59;;;;;;;12.60;9.77;;;12.30;48.80;;;;;;5044055;28;20049;-58
2022/03/12 09:05:25;;;;;;;11.35;9.80;;;12.40;49.10;;;;;;5041081;28;20131;-58
2022/03/12 09:07:52;;;;;;;12.18;10.25;;;12.80;48.80;;;;;;5042734;28;20086;-58
2022/03/12 09:10:20;;;;;;;12.60;10.90;;;13.00;48.20;;;;;;5044454;28;20048;-58
2022/03/12 09:12:46;;;;;;;13.18;9.73;;;13.20;48.20;;;;;;5041993;28;20127;-58
2022/03/12 09:15:13;;;;;;;13.05;10.27;;;13.40;47.40;;;;;;5042891;28;20099;-58
2022/03/12 09:17:40;;;;;;;11.23;9.38;;;13.80;47.50;;;;;;5058708;28;20163;-58
2022/03/12 09:20:08;;;;;;;15.98;10.75;;;14.00;47.10;;;;;;5044529;28;20056;-58
2022/03/12 09:22:34;;;;;;;13.30;10.10;;;14.20;47.60;;;;;;5059270;28;20059;-58
2022/03/12 09:25:02;;;;;;;12.52;9.88;;;14.20;47.40;;;;;;5042996;28;20080;-58
2022/03/12 09:27:28;;;;;;;12.70;9.80;;;14.60;47.30;;;;;;5045153;28;20055;-58
2022/03/12 09:29:55;;;;;;;12.57;10.93;;;14.80;46.90;;;;;;5059865;28;20099;-58
2022/03/12 09:32:22;;;;;;;12.20;10.48;;;15.20;47.60;;;;;;5045328;28;20037;-58
2022/03/12 09:34:48;;;;;;;11.43;9.43;;;15.60;47.30;;;;;;5045196;28;20049;-58
2022/03/12 09:37:14;;;;;;;10.90;9.55;;;15.60;47.70;;;;;;5010500;28;20041;-58
2022/03/12 09:39:41;;;;;;;13.15;9.00;;;15.60;47.90;;;;;;5044871;28;20044;-58
2022/03/12 09:42:08;;;;;;;11.50;10.13;;;15.50;48.70;;;;;;5042546;28;20041;-58
2022/03/12 09:44:34;;;;;;;10.68;9.48;;;15.40;49.50;;;;;;5026825;28;20747;-58
2022/03/12 09:47:00;;;;;;;16.45;10.25;;;15.30;49.60;;;;;;5059339;28;20532;-58
2022/03/12 09:49:27;;;;;;;11.90;10.02;;;15.20;50.20;;;;;;5026195;28;20500;-58
2022/03/12 09:51:53;;;;;;;11.30;10.20;;;15.20;50.30;;;;;;5042268;28;20041;-58
2022/03/12 09:54:20;;;;;;;11.35;9.50;;;15.50;50.40;;;;;;5042747;28;20037;-58
2022/03/12 09:56:46;;;;;;;11.68;9.98;;;15.30;50.20;;;;;;5042319;28;20571;-58
2022/03/12 09:59:12;;;;;;;14.13;10.50;;;15.20;51.00;;;;;;5044133;28;20110;-58
2022/03/12 10:01:38;;;;;;;12.32;9.85;;;15.50;50.90;;;;;;5044153;28;20045;-58
2022/03/12 10:04:05;;;;;;;13.98;10.35;;;15.70;50.80;;;;;;5043637;28;20102;-58
2022/03/12 10:06:31;;;;;;;12.13;9.52;;;15.90;50.30;;;;;;5044081;28;20527;-58
2022/03/12 10:08:58;;;;;;;13.18;10.13;;;15.90;50.00;;;;;;5043982;28;20073;-58
2022/03/12 10:11:24;;;;;;;14.55;10.73;;;15.30;50.30;;;;;;5041755;28;20044;-58
2022/03/12 10:13:50;;;;;;;12.88;10.93;;;15.10;51.20;;;;;;5041791;28;20410;-58
2022/03/12 10:16:18;;;;;;;13.07;10.77;;;15.10;51.60;;;;;;5041496;28;20045;-58
2022/03/12 10:18:46;;;;;;;12.68;11.10;;;15.10;52.30;;;;;;5043861;28;20056;-57
2022/03/12 10:21:13;;;;;;;12.82;10.50;;;15.40;52.10;;;;;;5043646;28;20146;-58
2022/03/12 10:23:39;;;;;;;13.73;10.45;;;15.50;52.00;;;;;;5043325;28;20513;-58
2022/03/12 10:26:05;;;;;;;13.73;9.90;;;15.60;51.30;;;;;;5041551;28;20083;-57
2022/03/12 10:28:36;;;;;;;16.88;10.60;;;15.70;51.50;;;;;;5042244;28;20041;-58
2022/03/12 10:31:05;;;;;;;14.60;10.05;;;15.70;51.80;;;;;;5042986;28;20056;-58
2022/03/12 10:33:33;;;;;;;10.93;9.43;;;15.70;53.20;;;;;;5043726;28;20083;-54
2022/03/12 10:36:19;;;;;;;14.45;10.30;;;15.90;53.30;;;;;;5041895;28;20044;-58
2022/03/12 10:38:48;;;;;;;10.60;8.93;;;15.80;54.00;;;;;;5042705;28;20049;-53
2022/03/12 10:41:16;;;;;;;12.52;10.75;;;16.00;53.50;;;;;;5042233;28;20151;-55
2022/03/12 10:43:48;;;;;;;10.82;9.75;;;16.20;54.10;;;;;;5041981;28;20045;-58
2022/03/12 10:46:27;;;;;;;10.80;9.65;;;16.10;54.30;;;;;;5044695;28;20040;-58
2022/03/12 10:48:57;;;;;;;11.55;8.82;;;16.00;54.50;;;;;;5042787;28;20049;-58
2022/03/12 10:51:30;;;;;;;11.25;9.20;;;16.40;55.10;;;;;;5042870;28;20049;-58
2022/03/12 10:54:07;;;;;;;13.25;9.25;;;16.40;54.70;;;;;;5024652;28;20044;-54
2022/03/12 10:56:54;;;;;;;10.77;9.57;;;16.30;55.60;;;;;;5042429;28;20132;-55
2022/03/12 10:59:23;;;;;;;10.68;8.48;;;16.30;54.70;;;;;;5041495;28;20400;-53
2022/03/12 11:01:53;;;;;;;10.05;8.80;;;16.20;57.40;;;;;;5041037;28;20116;-55
2022/03/12 11:04:24;;;;;;;11.65;8.82;;;16.10;57.10;;;;;;5042652;28;20419;-58
2022/03/12 11:06:51;;;;;;;9.63;8.23;;;16.40;57.70;;;;;;5042675;28;20500;-59
2022/03/12 11:09:37;;;;;;;10.38;8.60;;;16.80;57.40;;;;;;5040820;28;20516;-58
2022/03/12 11:12:35;;;;;;;10.27;7.40;;;16.90;57.00;;;;;;5042293;28;20049;-58
2022/03/12 11:15:16;;;;;;;14.07;9.10;;;17.00;55.70;;;;;;5041017;28;20044;-58
2022/03/12 11:17:46;;;;;;;10.68;7.65;;;16.60;56.00;;;;;;5041041;28;20049;-58
2022/03/12 11:20:19;;;;;;;12.20;8.20;;;16.40;57.50;;;;;;5041400;28;20049;-57
2022/03/12 11:23:10;;;;;;;9.65;7.47;;;16.30;58.40;;;;;;5042403;28;20144;-57
2022/03/12 11:25:54;;;;;;;9.75;7.78;;;16.40;57.60;;;;;;5040814;28;20512;-58
2022/03/12 11:28:20;;;;;;;11.43;7.70;;;16.40;58.30;;;;;;5040996;28;20071;-57
2022/03/12 11:30:47;;;;;;;12.95;8.50;;;16.50;58.10;;;;;;5042244;28;20060;-58
2022/03/12 11:33:14;;;;;;;8.40;7.50;;;16.20;58.40;;;;;;5042931;28;20082;-58
2022/03/12 11:35:46;;;;;;;10.68;8.27;;;16.10;59.40;;;;;;5042958;28;20129;-58
2022/03/12 11:38:21;;;;;;;8.95;8.02;;;15.60;60.30;;;;;;5057521;28;20044;-58
2022/03/12 11:41:00;;;;;;;10.40;8.18;;;15.40;63.20;;;;;;5042507;28;20597;-57
2022/03/12 11:43:36;;;;;;;13.43;7.95;;;15.20;64.60;;;;;;5042367;28;20056;-58
2022/03/12 11:46:06;;;;;;;10.27;8.20;;;15.40;63.80;;;;;;5040060;28;20048;-58
2022/03/12 11:48:34;;;;;;;12.07;8.43;;;15.60;64.20;;;;;;5042420;28;20037;-58
2022/03/12 11:51:02;;;;;;;11.20;8.10;;;15.90;62.70;;;;;;5040203;28;20036;-58
2022/03/12 11:53:36;;;;;;;10.43;8.27;;;16.20;62.20;;;;;;5042087;28;20098;-58
2022/03/12 11:56:04;;;;;;;10.65;8.27;;;16.60;60.90;;;;;;5039136;28;20045;-58
2022/03/12 11:58:32;;;;;;;10.77;8.40;;;17.00;57.70;;;;;;5039820;28;20041;-58
2022/03/12 12:00:58;;;;;;;10.68;8.00;;;17.30;56.20;;;;;;5039552;28;20573;-58
2022/03/12 12:03:24;;;;;;;12.15;7.20;;;17.60;54.80;;;;;;5039643;28;20398;-58
2022/03/12 12:05:50;;;;;;;12.93;7.60;;;17.90;54.90;;;;;;5056012;28;20048;-58
2022/03/12 12:08:17;;;;;;;11.65;8.27;;;18.30;53.70;;;;;;5039203;28;20160;-58
2022/03/12 12:10:43;;;;;;;9.57;7.80;;;18.30;54.20;;;;;;5056424;28;20068;-57
2022/03/12 12:13:13;;;;;;;10.52;7.47;;;18.00;53.70;;;;;;5056004;28;20469;-58
2022/03/12 12:15:45;;;;;;;11.20;7.97;;;17.70;53.70;;;;;;5040331;28;20049;-58
2022/03/12 12:18:13;;;;;;;11.45;8.20;;;17.50;53.70;;;;;;5044480;28;20126;-58
2022/03/12 12:20:41;;;;;;;11.27;8.30;;;17.40;54.30;;;;;;5000478;28;20048;-58
2022/03/12 12:23:18;;;;;;;12.70;8.50;;;17.40;54.60;;;;;;5043647;28;20045;-58
2022/03/12 12:25:44;;;;;;;11.10;7.70;;;17.40;54.50;;;;;;5045685;28;20037;-58
2022/03/12 12:28:15;;;;;;;11.30;8.13;;;17.20;55.60;;;;;;5024940;28;20111;-58
2022/03/12 12:30:44;;;;;;;8.83;7.63;;;17.20;55.90;;;;;;5044927;28;20049;-58
2022/03/12 12:33:25;;;;;;;10.27;7.65;;;17.30;55.50;;;;;;5043651;28;20040;-58
2022/03/12 12:36:15;;;;;;;10.73;7.55;;;17.10;54.70;;;;;;5060504;28;20445;-54
2022/03/12 12:39:04;;;;;;;12.52;7.88;;;17.20;55.60;;;;;;5042390;28;20488;-55
2022/03/12 12:41:53;;;;;;;8.98;8.07;;;17.60;56.00;;;;;;5045492;28;20072;-55
2022/03/12 12:44:42;;;;;;;11.05;7.65;;;17.70;54.10;;;;;;5045553;28;20385;-55
2022/03/12 12:47:17;;;;;;;9.10;7.22;;;17.30;54.20;;;;;;5044637;28;20051;-53
2022/03/12 12:49:52;;;;;;;9.32;7.20;;;17.00;54.30;;;;;;5045250;28;20091;-52
2022/03/12 12:52:18;;;;;;;8.68;6.90;;;16.90;55.20;;;;;;5045072;28;20126;-58